Weed, California
Current Conditions -  °F | °C
As of 12:20 AM on Friday 24 Oct 2014 (Local Time) from KMHS Reporting Station
Light Rain Light Rain  
Wind Chill: 46°   Ceiling: 500
Heat Index: 46°   Visibility: 4mi
Dew Point: 45°   Wind: 0mph
Humidity: 96%   Direction: NA
Pressure: 30.06"   Gusts: NA
Location:  41.42°N, 122.39°W
Report Text: KMHS 240720Z AUTO 00000KT 4SM -RA BR OVC005 08/07 A3006 RMK AO2 P0002 T00780072
Loading
Personal Weather Stations






























Interactive Weather Map
Tropical Storm Tracking
New forecast layout! Learn more

10-Day Weather Forecast

Advertisements
Track Severe Weather on mobile